Terminal Aerodrome Forecast
Issued by NWS Houston/Galveston TX

Home | Current Version | Previous Version | Text Only | Print | Product List | Glossary On
Versions: 1 2 3 4 5 6 7 8 9 10 11 12 13 14 15 16 17 18 19 20 21 22 23 24 25 26
000
FTUS44 KHGX 031010 AAB
TAFHOU
TAF AMD
KHOU 031010Z 0310/0406 06015KT 4SM RA VCTS SCT007 OVC010CB
      TEMPO 0310/0311 TSRA BKN007CB
     FM031800 10011KT 3SM TSRA BR SCT004 BKN007 OVC012CB
     FM040000 03007KT 4SM -SHRA BR SCT004 BKN007 OVC012=

USA.gov is the U.S. government's official web portal to all federal, state and local government web resources and services.